createdAt,value
2024-04-30T00:00:22.813Z,64.46
2024-04-30T00:02:49.606Z,64.42
2024-04-30T00:05:16.593Z,64.46
2024-04-30T00:07:43.511Z,64.54
2024-04-30T00:10:10.337Z,63.92
2024-04-30T00:12:37.218Z,64.00
2024-04-30T00:15:04.225Z,64.34
2024-04-30T00:17:33.719Z,63.89
2024-04-30T00:20:00.935Z,63.84
2024-04-30T00:22:30.005Z,63.59
2024-04-30T00:24:56.898Z,63.77
2024-04-30T00:27:23.682Z,63.71
2024-04-30T00:29:50.529Z,64.31
2024-04-30T00:32:17.589Z,64.29
2024-04-30T00:34:45.279Z,64.21
2024-04-30T00:37:12.367Z,64.32
2024-04-30T00:39:39.231Z,64.31
2024-04-30T00:42:07.385Z,64.61
2024-04-30T00:44:34.228Z,64.91
2024-04-30T00:47:01.162Z,65.11
2024-04-30T00:49:28.701Z,65.18
2024-04-30T00:51:56.862Z,64.88
2024-04-30T00:54:25.344Z,65.10
2024-04-30T00:56:53.070Z,65.33
2024-04-30T00:59:19.836Z,65.41
2024-04-30T01:01:46.702Z,65.31
2024-04-30T01:04:13.718Z,65.19
2024-04-30T01:06:40.589Z,65.36
2024-04-30T01:09:07.412Z,65.05
2024-04-30T01:11:34.375Z,65.00
2024-04-30T01:14:01.227Z,64.54
2024-04-30T01:16:28.096Z,64.53
2024-04-30T01:18:55.003Z,64.79
2024-04-30T01:21:22.386Z,64.79
2024-04-30T01:23:49.239Z,65.70
2024-04-30T01:26:16.044Z,65.30
2024-04-30T01:28:42.853Z,65.59
2024-04-30T01:31:09.772Z,65.61
2024-04-30T01:33:36.684Z,65.82
2024-04-30T01:36:03.767Z,66.02
2024-04-30T01:38:30.531Z,65.56
2024-04-30T01:40:57.428Z,65.52
2024-04-30T01:43:24.224Z,66.38
2024-04-30T01:45:51.036Z,67.04
2024-04-30T01:48:18.009Z,67.74
2024-04-30T01:50:45.433Z,67.96
2024-04-30T01:53:12.191Z,67.99
2024-04-30T01:55:39.021Z,67.69
2024-04-30T01:58:05.854Z,68.15
2024-04-30T02:00:32.738Z,68.89
2024-04-30T02:02:59.615Z,68.79
2024-04-30T02:05:26.494Z,68.38
2024-04-30T02:07:53.671Z,68.55
2024-04-30T02:10:20.557Z,68.82
2024-04-30T02:12:47.658Z,68.65
2024-04-30T02:15:14.823Z,68.46
2024-04-30T02:17:41.954Z,69.05
2024-04-30T02:20:09.509Z,68.95
2024-04-30T02:22:36.321Z,69.56
2024-04-30T02:25:03.332Z,70.10
2024-04-30T02:27:33.402Z,70.08
2024-04-30T02:30:00.218Z,70.05
2024-04-30T02:32:46.130Z,70.43
2024-04-30T02:35:13.113Z,70.10
2024-04-30T02:37:39.882Z,71.31
2024-04-30T02:40:07.326Z,71.63
2024-04-30T02:42:34.198Z,71.35
2024-04-30T02:45:01.298Z,70.89
2024-04-30T02:47:31.673Z,71.51
2024-04-30T02:49:58.513Z,72.06
2024-04-30T02:52:25.323Z,71.82
2024-04-30T02:54:52.142Z,71.21
2024-04-30T02:57:18.950Z,70.69
2024-04-30T02:59:45.793Z,70.80
2024-04-30T03:02:12.601Z,71.72
2024-04-30T03:04:44.100Z,71.96
2024-04-30T03:07:10.977Z,72.25
2024-04-30T03:09:38.213Z,72.38
2024-04-30T03:12:05.357Z,72.01
2024-04-30T03:14:32.190Z,72.39
2024-04-30T03:16:59.002Z,71.55
2024-04-30T03:19:25.905Z,71.94
2024-04-30T03:21:52.726Z,71.55
2024-04-30T03:24:19.529Z,71.13
2024-04-30T03:26:46.349Z,70.71
2024-04-30T03:29:13.215Z,70.69
2024-04-30T03:31:40.055Z,70.55
2024-04-30T03:34:07.184Z,70.09
2024-04-30T03:36:34.030Z,69.61
2024-04-30T03:39:00.816Z,69.83
2024-04-30T03:41:27.634Z,69.88
2024-04-30T03:43:54.413Z,69.99
2024-04-30T03:46:21.329Z,70.36
2024-04-30T03:48:48.138Z,72.35
2024-04-30T03:51:15.007Z,74.17
2024-04-30T03:53:41.794Z,73.92
2024-04-30T03:56:08.617Z,73.31
2024-04-30T03:58:35.600Z,72.35
2024-04-30T04:01:03.218Z,72.09
2024-04-30T04:03:30.330Z,72.96
2024-04-30T04:05:57.412Z,74.08
2024-04-30T04:08:24.219Z,74.63
2024-04-30T04:11:09.852Z,74.12
2024-04-30T04:13:55.269Z,73.52
2024-04-30T04:16:22.168Z,73.28
2024-04-30T04:18:49.025Z,72.55
2024-04-30T04:21:18.343Z,72.44
2024-04-30T04:23:46.675Z,72.52
2024-04-30T04:26:13.589Z,72.84
2024-04-30T04:28:40.466Z,73.06
2024-04-30T04:31:07.499Z,72.71
2024-04-30T04:33:34.371Z,72.77
2024-04-30T04:36:01.167Z,72.65
2024-04-30T04:40:54.754Z,72.35
2024-04-30T04:43:21.598Z,73.11
2024-04-30T04:45:48.356Z,73.58
2024-04-30T04:48:15.284Z,72.96
2024-04-30T04:50:42.670Z,72.50
2024-04-30T04:53:09.585Z,72.42
2024-04-30T04:55:36.481Z,72.86
2024-04-30T04:58:04.217Z,72.16
2024-04-30T05:00:31.094Z,71.73
2024-04-30T05:02:58.342Z,71.73
2024-04-30T05:05:25.156Z,71.75
2024-04-30T05:07:52.040Z,72.79
2024-04-30T05:10:18.908Z,73.06
2024-04-30T05:12:45.813Z,72.38
2024-04-30T05:15:12.604Z,71.52
2024-04-30T05:17:39.470Z,71.52
2024-04-30T05:20:06.608Z,71.57
2024-04-30T05:22:34.150Z,71.07
2024-04-30T05:25:01.431Z,70.25
2024-04-30T05:27:30.573Z,70.26
2024-04-30T05:29:58.148Z,69.36
2024-04-30T05:32:29.912Z,69.89
2024-04-30T05:35:00.132Z,70.49
2024-04-30T05:37:27.479Z,69.90
2024-04-30T05:39:54.334Z,69.96
2024-04-30T05:42:21.246Z,70.01
2024-04-30T05:44:48.124Z,69.44
2024-04-30T05:47:15.065Z,69.14
2024-04-30T05:49:42.164Z,69.30
2024-04-30T05:52:09.011Z,68.37
2024-04-30T05:54:35.873Z,68.53
2024-04-30T05:57:02.733Z,67.86
2024-04-30T05:59:29.665Z,67.98
2024-04-30T06:01:56.751Z,68.24
2024-04-30T06:04:23.637Z,67.67
2024-04-30T06:06:50.562Z,67.37
2024-04-30T06:09:17.363Z,66.87
2024-04-30T06:11:44.214Z,65.99
2024-04-30T06:14:11.053Z,65.86
2024-04-30T06:16:37.944Z,66.25
2024-04-30T06:19:04.857Z,66.48
2024-04-30T06:21:37.669Z,66.37
2024-04-30T06:24:06.756Z,66.32
2024-04-30T06:26:33.741Z,66.54
2024-04-30T06:29:00.678Z,66.00
2024-04-30T06:31:27.646Z,65.80
2024-04-30T06:33:54.584Z,65.75
2024-04-30T06:36:21.570Z,65.23
2024-04-30T06:38:48.841Z,64.68
2024-04-30T06:41:15.796Z,64.46
2024-04-30T06:43:42.815Z,64.63
2024-04-30T06:46:09.791Z,66.05
2024-04-30T06:48:36.964Z,66.70
2024-04-30T06:51:04.034Z,66.35
2024-04-30T06:53:30.858Z,66.94
2024-04-30T06:55:57.780Z,66.66
2024-04-30T06:58:24.779Z,65.06
2024-04-30T07:00:51.627Z,64.52
2024-04-30T07:03:18.747Z,63.00
2024-04-30T07:05:45.896Z,62.18
2024-04-30T07:08:12.704Z,62.52
2024-04-30T07:10:39.723Z,62.18
2024-04-30T07:13:08.628Z,61.13
2024-04-30T07:15:35.512Z,60.81
2024-04-30T07:18:04.179Z,60.54
2024-04-30T07:20:32.303Z,60.64
2024-04-30T07:22:59.132Z,60.76
2024-04-30T07:25:27.811Z,60.26
2024-04-30T07:27:54.624Z,60.31
2024-04-30T07:30:21.391Z,59.97
2024-04-30T07:32:48.357Z,59.40
2024-04-30T07:35:15.470Z,60.36
2024-04-30T07:37:42.328Z,60.17
2024-04-30T07:40:10.589Z,60.47
2024-04-30T07:42:37.444Z,59.26
2024-04-30T07:45:04.542Z,59.47
2024-04-30T07:47:32.743Z,59.56
2024-04-30T07:49:59.667Z,57.82
2024-04-30T07:52:26.547Z,58.54
2024-04-30T07:54:55.862Z,59.07
2024-04-30T07:57:24.268Z,58.00
2024-04-30T07:59:51.165Z,58.37
2024-04-30T08:02:18.088Z,58.32
2024-04-30T08:04:45.059Z,56.55
2024-04-30T08:07:11.972Z,55.79
2024-04-30T08:09:38.921Z,56.05
2024-04-30T08:12:05.991Z,55.48
2024-04-30T08:14:35.648Z,53.43
2024-04-30T08:17:03.693Z,52.92
2024-04-30T08:19:30.893Z,53.90
2024-04-30T08:21:57.750Z,55.76
2024-04-30T08:24:24.772Z,55.43
2024-04-30T08:26:51.903Z,54.96
2024-04-30T08:29:19.058Z,54.99
2024-04-30T08:31:46.343Z,52.92
2024-04-30T08:34:13.269Z,52.36
2024-04-30T08:36:40.111Z,53.74
2024-04-30T08:39:06.941Z,53.63
2024-04-30T08:41:39.190Z,53.86
2024-04-30T08:44:08.110Z,54.17
2024-04-30T08:46:38.838Z,52.33
2024-04-30T08:49:07.231Z,55.54
2024-04-30T08:51:36.384Z,55.12
2024-04-30T08:54:04.815Z,55.33
2024-04-30T08:56:34.559Z,55.65
2024-04-30T08:59:01.482Z,54.69
2024-04-30T09:01:28.644Z,54.07
2024-04-30T09:03:58.417Z,53.62
2024-04-30T09:06:25.224Z,52.24
2024-04-30T09:08:51.989Z,51.59
2024-04-30T09:11:19.127Z,51.19
2024-04-30T09:13:46.094Z,50.83
2024-04-30T09:16:13.951Z,50.98
2024-04-30T09:18:51.216Z,50.85
2024-04-30T09:21:26.471Z,50.27
2024-04-30T09:23:53.330Z,50.76
2024-04-30T09:26:20.236Z,52.14
2024-04-30T09:28:56.531Z,51.30
2024-04-30T09:31:23.606Z,50.77
2024-04-30T09:33:57.565Z,50.47
2024-04-30T09:36:24.419Z,51.40
2024-04-30T09:38:54.070Z,50.17
2024-04-30T09:41:22.678Z,50.12
2024-04-30T09:43:50.033Z,48.84
2024-04-30T09:46:17.091Z,48.94
2024-04-30T09:48:45.682Z,48.56
2024-04-30T09:51:14.020Z,48.97
2024-04-30T09:53:41.929Z,48.50
2024-04-30T09:56:11.802Z,48.91
2024-04-30T09:58:40.232Z,49.31
2024-04-30T10:01:13.088Z,48.53
2024-04-30T10:03:42.596Z,49.10
2024-04-30T10:06:11.423Z,49.74
2024-04-30T10:08:40.410Z,49.42
2024-04-30T10:11:08.421Z,48.78
2024-04-30T10:13:36.288Z,48.54
2024-04-30T10:16:14.616Z,49.02
2024-04-30T10:18:42.966Z,49.12
2024-04-30T10:21:11.095Z,48.49
2024-04-30T10:23:43.961Z,48.13
2024-04-30T10:26:15.335Z,47.50
2024-04-30T10:28:42.704Z,47.53
2024-04-30T10:31:09.633Z,48.21
2024-04-30T10:33:37.676Z,48.29
2024-04-30T10:36:05.302Z,48.41
2024-04-30T10:38:32.198Z,48.15
2024-04-30T10:41:05.874Z,47.93
2024-04-30T10:43:33.271Z,48.66
2024-04-30T10:46:11.941Z,48.93
2024-04-30T10:48:46.939Z,47.83
2024-04-30T10:51:13.755Z,47.87
2024-04-30T10:53:42.229Z,48.06
2024-04-30T10:56:13.293Z,47.86
2024-04-30T10:59:12.443Z,48.09
2024-04-30T11:01:39.362Z,47.23
2024-04-30T11:04:14.017Z,48.10
2024-04-30T11:06:46.307Z,49.09
2024-04-30T11:09:16.006Z,48.45
2024-04-30T11:11:50.919Z,47.34
2024-04-30T11:14:20.046Z,47.77
2024-04-30T11:16:48.538Z,47.12
2024-04-30T11:19:15.796Z,48.10
2024-04-30T11:21:43.028Z,47.33
2024-04-30T11:24:12.685Z,48.01
2024-04-30T11:26:39.907Z,48.07
2024-04-30T11:31:36.684Z,47.77
2024-04-30T11:34:05.561Z,48.47
2024-04-30T11:36:32.618Z,48.60
2024-04-30T11:38:59.422Z,48.49
2024-04-30T11:41:26.278Z,49.11
2024-04-30T11:43:56.561Z,48.78
2024-04-30T11:46:23.538Z,49.48
2024-04-30T11:48:51.160Z,49.59
2024-04-30T11:51:18.609Z,48.54
2024-04-30T11:53:45.586Z,48.50
2024-04-30T11:56:13.425Z,47.90
2024-04-30T11:58:40.374Z,47.84
2024-04-30T12:01:07.331Z,48.72
2024-04-30T12:03:34.587Z,48.21
2024-04-30T12:06:02.768Z,48.93
2024-04-30T12:08:30.583Z,48.73
2024-04-30T12:10:57.579Z,48.09
2024-04-30T12:13:24.673Z,49.54
2024-04-30T12:15:51.548Z,49.07
2024-04-30T12:18:19.108Z,48.64
2024-04-30T12:20:45.934Z,48.78
2024-04-30T12:23:12.807Z,49.06
2024-04-30T12:25:39.728Z,49.59
2024-04-30T12:28:06.801Z,49.42
2024-04-30T12:30:33.635Z,49.69
2024-04-30T12:33:00.683Z,49.49
2024-04-30T12:35:29.091Z,49.01
2024-04-30T12:37:56.046Z,49.41
2024-04-30T12:40:22.931Z,49.90
2024-04-30T12:42:49.780Z,49.59
2024-04-30T12:45:17.459Z,50.22
2024-04-30T12:47:44.360Z,51.12
2024-04-30T12:50:11.438Z,50.68
2024-04-30T12:52:38.350Z,50.48
2024-04-30T12:55:05.140Z,50.80
2024-04-30T12:57:32.010Z,49.90
2024-04-30T12:59:58.823Z,49.48
2024-04-30T13:02:25.647Z,49.06
2024-04-30T13:04:52.991Z,48.91
2024-04-30T13:07:19.881Z,49.35
2024-04-30T13:09:46.714Z,49.51
2024-04-30T13:12:13.594Z,49.70
2024-04-30T13:14:40.415Z,49.51
2024-04-30T13:17:07.215Z,49.92
2024-04-30T13:19:34.095Z,49.68
2024-04-30T13:22:00.919Z,50.01
2024-04-30T13:24:27.836Z,50.17
2024-04-30T13:26:54.787Z,49.59
2024-04-30T13:29:21.600Z,50.20
2024-04-30T13:31:48.394Z,49.04
2024-04-30T13:34:15.332Z,48.42
2024-04-30T13:36:45.445Z,48.86
2024-04-30T13:39:15.335Z,48.55
2024-04-30T13:41:42.337Z,47.72
2024-04-30T13:44:09.316Z,47.84
2024-04-30T13:46:36.315Z,47.42
2024-04-30T13:49:03.153Z,47.11
2024-04-30T13:51:29.971Z,46.77
2024-04-30T13:53:56.834Z,44.74
2024-04-30T13:56:23.666Z,37.84
2024-04-30T13:58:50.513Z,37.80
2024-04-30T14:01:17.873Z,37.06
2024-04-30T14:03:45.155Z,37.99
2024-04-30T14:06:14.269Z,40.71
2024-04-30T14:08:41.626Z,37.14
2024-04-30T14:11:08.544Z,35.88
2024-04-30T14:13:35.624Z,36.48
2024-04-30T14:16:06.381Z,37.75
2024-04-30T14:18:34.473Z,36.81
2024-04-30T14:21:01.330Z,34.39
2024-04-30T14:23:29.434Z,32.11
2024-04-30T14:25:57.579Z,34.64
2024-04-30T14:28:25.586Z,34.97
2024-04-30T14:30:52.799Z,34.58
2024-04-30T14:33:19.880Z,34.35
2024-04-30T14:36:05.296Z,35.01
2024-04-30T14:38:36.856Z,34.15
2024-04-30T14:41:03.897Z,33.85
2024-04-30T14:43:30.715Z,32.30
2024-04-30T14:45:57.542Z,30.69
2024-04-30T14:48:24.458Z,32.37
2024-04-30T14:50:51.654Z,30.07
2024-04-30T14:53:18.483Z,27.16
2024-04-30T14:55:45.330Z,29.26
2024-04-30T14:58:12.210Z,25.88
2024-04-30T15:00:39.099Z,25.17
2024-04-30T15:03:06.180Z,24.53
2024-04-30T15:05:33.261Z,25.40
2024-04-30T15:08:00.108Z,21.98
2024-04-30T15:10:26.992Z,21.71
2024-04-30T15:12:53.890Z,18.84
2024-04-30T15:15:20.986Z,18.42
2024-04-30T15:17:47.749Z,20.26
2024-04-30T15:20:14.542Z,21.03
2024-04-30T15:22:41.474Z,20.02
2024-04-30T15:25:08.374Z,20.06
2024-04-30T15:27:35.273Z,19.09
2024-04-30T15:30:02.690Z,18.99
2024-04-30T15:32:31.909Z,20.48
2024-04-30T15:35:00.513Z,22.24
2024-04-30T15:37:27.777Z,24.55
2024-04-30T15:39:55.022Z,25.60
2024-04-30T15:42:22.058Z,25.56
2024-04-30T15:44:48.889Z,26.04
2024-04-30T15:47:15.853Z,26.20
2024-04-30T15:49:43.045Z,27.42
2024-04-30T15:52:09.909Z,27.40
2024-04-30T15:54:36.709Z,26.92
2024-04-30T15:57:04.164Z,28.25
2024-04-30T15:59:33.298Z,28.45
2024-04-30T16:02:00.131Z,28.37
2024-04-30T16:04:27.044Z,28.75
2024-04-30T16:06:53.931Z,29.04
2024-04-30T16:09:20.955Z,30.38
2024-04-30T16:11:47.862Z,31.16
2024-04-30T16:14:14.734Z,29.46
2024-04-30T16:16:41.847Z,30.85
2024-04-30T16:19:12.756Z,31.09
2024-04-30T16:21:39.703Z,30.58
2024-04-30T16:24:07.533Z,29.71
2024-04-30T16:26:34.328Z,30.35
2024-04-30T16:29:01.227Z,29.93
2024-04-30T16:33:55.013Z,31.38
2024-04-30T16:36:24.474Z,30.36
2024-04-30T16:38:51.841Z,30.10
2024-04-30T16:41:18.698Z,29.20
2024-04-30T16:43:45.501Z,30.94
2024-04-30T16:46:12.371Z,28.94
2024-04-30T16:48:39.761Z,30.78
2024-04-30T16:51:11.816Z,28.81
2024-04-30T16:53:38.739Z,29.05
2024-04-30T16:56:06.924Z,28.88
2024-04-30T16:58:33.774Z,30.50
2024-04-30T17:01:00.655Z,30.73
2024-04-30T17:03:27.695Z,30.25
2024-04-30T17:05:54.718Z,32.32
2024-04-30T17:08:21.532Z,29.87
2024-04-30T17:10:48.339Z,30.42
2024-04-30T17:13:15.193Z,30.01
2024-04-30T17:15:42.162Z,29.58
2024-04-30T17:18:09.022Z,30.74
2024-04-30T17:20:35.865Z,30.80
2024-04-30T17:23:02.803Z,31.14
2024-04-30T17:25:29.603Z,33.34
2024-04-30T17:27:56.554Z,33.59
2024-04-30T17:30:23.534Z,32.04
2024-04-30T17:32:50.353Z,32.84
2024-04-30T17:35:17.257Z,32.88
2024-04-30T17:37:44.150Z,31.62
2024-04-30T17:40:12.193Z,31.68
2024-04-30T17:42:39.448Z,32.65
2024-04-30T17:45:07.639Z,33.68
2024-04-30T17:47:34.499Z,32.13
2024-04-30T17:50:01.389Z,32.26
2024-04-30T17:52:31.147Z,32.68
2024-04-30T17:54:59.862Z,32.75
2024-04-30T17:57:26.785Z,33.08
2024-04-30T17:59:53.980Z,33.42
2024-04-30T18:02:21.205Z,33.38
2024-04-30T18:04:48.462Z,35.07
2024-04-30T18:07:15.365Z,34.34
2024-04-30T18:09:42.731Z,34.73
2024-04-30T18:12:09.766Z,35.24
2024-04-30T18:14:36.717Z,36.37
2024-04-30T18:17:04.652Z,36.75
2024-04-30T18:19:31.783Z,37.27
2024-04-30T18:21:58.854Z,37.43
2024-04-30T18:24:25.760Z,38.06
2024-04-30T18:26:52.643Z,36.90
2024-04-30T18:29:19.975Z,38.11
2024-04-30T18:31:51.976Z,38.88
2024-04-30T18:34:19.132Z,39.08
2024-04-30T18:36:46.163Z,39.00
2024-04-30T18:39:14.146Z,39.41
2024-04-30T18:41:41.248Z,39.58
2024-04-30T18:44:08.672Z,40.14
2024-04-30T18:46:36.388Z,40.32
2024-04-30T18:49:03.397Z,40.67
2024-04-30T18:51:30.503Z,40.96
2024-04-30T18:53:57.489Z,40.97
2024-04-30T18:56:24.466Z,40.77
2024-04-30T18:58:51.754Z,41.20
2024-04-30T19:01:18.947Z,42.18
2024-04-30T19:03:48.636Z,42.57
2024-04-30T19:06:19.357Z,42.68
2024-04-30T19:08:47.326Z,43.06
2024-04-30T19:11:15.162Z,43.39
2024-04-30T19:13:41.985Z,43.73
2024-04-30T19:16:09.047Z,42.90
2024-04-30T19:18:37.985Z,43.52
2024-04-30T19:21:08.184Z,43.35
2024-04-30T19:23:35.651Z,43.25
2024-04-30T19:26:03.030Z,44.05
2024-04-30T19:28:29.986Z,44.90
2024-04-30T19:30:57.113Z,44.35
2024-04-30T19:33:24.628Z,45.33
2024-04-30T19:35:51.691Z,45.78
2024-04-30T19:38:18.620Z,46.03
2024-04-30T19:40:47.260Z,46.33
2024-04-30T19:43:14.613Z,46.23
2024-04-30T19:45:42.175Z,47.18
2024-04-30T19:48:14.384Z,47.41
2024-04-30T19:50:43.856Z,47.55
2024-04-30T19:53:10.715Z,47.89
2024-04-30T19:55:37.571Z,48.09
2024-04-30T19:58:04.509Z,48.16
2024-04-30T20:00:31.443Z,47.97
2024-04-30T20:02:58.939Z,48.37
2024-04-30T20:05:25.949Z,48.21
2024-04-30T20:07:52.929Z,48.88
2024-04-30T20:10:19.969Z,49.11
2024-04-30T20:12:46.853Z,49.66
2024-04-30T20:15:13.799Z,49.87
2024-04-30T20:17:40.982Z,49.85
2024-04-30T20:20:13.731Z,49.96
2024-04-30T20:22:45.371Z,50.01
2024-04-30T20:25:14.477Z,50.78
2024-04-30T20:27:41.620Z,50.34
2024-04-30T20:30:11.619Z,50.39
2024-04-30T20:32:39.876Z,50.71
2024-04-30T20:35:07.576Z,50.63
2024-04-30T20:37:34.472Z,50.39
2024-04-30T20:40:01.487Z,50.98
2024-04-30T20:42:28.962Z,50.96
2024-04-30T20:44:56.074Z,51.06
2024-04-30T20:47:23.179Z,51.12
2024-04-30T20:49:50.193Z,50.48
2024-04-30T20:52:17.021Z,51.10
2024-04-30T20:54:43.908Z,51.22
2024-04-30T20:57:10.906Z,50.19
2024-04-30T20:59:37.721Z,50.14
2024-04-30T21:02:07.052Z,51.19
2024-04-30T21:04:34.255Z,51.31
2024-04-30T21:07:01.440Z,51.58
2024-04-30T21:09:28.333Z,51.64
2024-04-30T21:11:55.187Z,52.00
2024-04-30T21:14:22.070Z,51.50
2024-04-30T21:16:48.838Z,51.88
2024-04-30T21:19:15.737Z,51.30
2024-04-30T21:21:42.974Z,51.49
2024-04-30T21:24:13.227Z,51.06
2024-04-30T21:26:41.209Z,51.56
2024-04-30T21:29:08.111Z,51.90
2024-04-30T21:31:34.930Z,51.88
2024-04-30T21:34:01.738Z,51.90
2024-04-30T21:36:29.048Z,51.68
2024-04-30T21:38:55.882Z,52.15
2024-04-30T21:41:22.642Z,51.72
2024-04-30T21:43:49.487Z,51.54
2024-04-30T21:46:16.231Z,51.89
2024-04-30T21:48:43.255Z,51.76
2024-04-30T21:51:10.184Z,52.01
2024-04-30T21:53:39.252Z,51.90
2024-04-30T21:56:06.334Z,52.10
2024-04-30T21:58:33.171Z,51.52
2024-04-30T22:01:00.009Z,52.21
2024-04-30T22:03:27.181Z,52.48
2024-04-30T22:05:54.303Z,52.45
2024-04-30T22:08:21.074Z,52.34
2024-04-30T22:10:48.046Z,52.24
2024-04-30T22:13:14.872Z,52.88
2024-04-30T22:15:42.759Z,52.75
2024-04-30T22:18:11.674Z,52.99
2024-04-30T22:20:39.170Z,52.54
2024-04-30T22:23:05.952Z,52.59
2024-04-30T22:25:32.760Z,52.73
2024-04-30T22:27:59.930Z,53.00
2024-04-30T22:30:26.833Z,52.91
2024-04-30T22:32:53.960Z,53.59
2024-04-30T22:35:20.873Z,53.56
2024-04-30T22:37:47.664Z,53.61
2024-04-30T22:40:14.588Z,53.46
2024-04-30T22:42:41.471Z,54.05
2024-04-30T22:45:08.404Z,54.38
2024-04-30T22:47:35.363Z,53.93
2024-04-30T22:50:02.415Z,53.75
2024-04-30T22:52:31.158Z,53.68
2024-04-30T22:54:58.204Z,53.67
2024-04-30T22:57:25.165Z,54.48
2024-04-30T22:59:52.061Z,55.69
2024-04-30T23:02:18.940Z,55.44
2024-04-30T23:04:45.895Z,55.67
2024-04-30T23:07:12.680Z,55.70
2024-04-30T23:09:39.526Z,55.66
2024-04-30T23:12:06.431Z,55.35
2024-04-30T23:14:33.328Z,55.78
2024-04-30T23:17:01.151Z,56.01
2024-04-30T23:19:28.212Z,56.37
2024-04-30T23:21:55.115Z,56.53
2024-04-30T23:24:22.066Z,56.35
2024-04-30T23:26:49.225Z,57.10
2024-04-30T23:29:16.076Z,57.43
2024-04-30T23:31:42.957Z,58.23
2024-04-30T23:34:10.538Z,58.39
2024-04-30T23:36:37.808Z,58.62
2024-04-30T23:39:05.471Z,58.93
2024-04-30T23:41:32.282Z,58.63
2024-04-30T23:43:59.213Z,59.60
2024-04-30T23:46:26.159Z,60.13
2024-04-30T23:48:53.006Z,60.58
2024-04-30T23:51:20.031Z,61.46
2024-04-30T23:53:46.911Z,61.65
2024-04-30T23:56:13.840Z,61.64
2024-04-30T23:58:40.737Z,60.98
